createdAt,value
2018-09-27T00:00:28.349Z,103039.27
2018-09-27T00:02:57.357Z,103034.39
2018-09-27T00:05:26.345Z,103034.97
2018-09-27T00:07:56.424Z,103029.56
2018-09-27T00:10:25.371Z,103025.77
2018-09-27T00:12:56.459Z,103027.19
2018-09-27T00:15:25.399Z,103030.34
2018-09-27T00:17:54.425Z,103019.72
2018-09-27T00:20:23.408Z,103023.77
2018-09-27T00:22:52.363Z,103015.29
2018-09-27T00:25:21.341Z,103016.44
2018-09-27T00:27:50.236Z,103017.80
2018-09-27T00:30:19.171Z,103011.19
2018-09-27T00:32:48.162Z,103009.79
2018-09-27T00:35:17.220Z,103007.72
2018-09-27T00:37:46.363Z,103005.00
2018-09-27T00:40:15.411Z,102995.06
2018-09-27T00:42:45.433Z,102989.77
2018-09-27T00:45:14.536Z,102992.27
2018-09-27T00:47:43.548Z,102991.31
2018-09-27T00:50:12.576Z,102990.54
2018-09-27T00:52:41.567Z,102987.79
2018-09-27T00:55:10.625Z,102991.40
2018-09-27T00:57:39.519Z,102998.49
2018-09-27T01:00:08.967Z,102995.70
2018-09-27T01:02:38.049Z,102989.72
2018-09-27T01:05:07.192Z,102991.56
2018-09-27T01:07:36.199Z,102983.49
2018-09-27T01:10:05.340Z,102990.44
2018-09-27T01:12:34.309Z,102989.57
2018-09-27T01:15:03.215Z,102990.09
2018-09-27T01:17:32.201Z,102985.91
2018-09-27T01:20:01.237Z,102986.14
2018-09-27T01:22:30.185Z,102987.16
2018-09-27T01:24:59.201Z,102985.28
2018-09-27T01:27:28.210Z,102984.12
2018-09-27T01:29:57.276Z,102983.94
2018-09-27T01:32:26.277Z,102971.30
2018-09-27T01:34:55.227Z,102973.56
2018-09-27T01:37:24.225Z,102975.11
2018-09-27T01:39:53.653Z,102969.95
2018-09-27T01:42:22.662Z,102968.50
2018-09-27T01:44:51.697Z,102971.20
2018-09-27T01:47:20.695Z,102966.67
2018-09-27T01:49:49.739Z,102967.34
2018-09-27T01:52:18.718Z,102959.33
2018-09-27T01:54:47.803Z,102956.34
2018-09-27T01:57:16.791Z,102956.88
2018-09-27T01:59:45.819Z,102953.25
2018-09-27T02:02:14.811Z,102956.25
2018-09-27T02:04:43.817Z,102949.44
2018-09-27T02:07:12.790Z,102948.13
2018-09-27T02:09:41.843Z,102946.41
2018-09-27T02:12:10.789Z,102938.11
2018-09-27T02:14:39.737Z,102939.45
2018-09-27T02:17:08.815Z,102935.41
2018-09-27T02:19:37.769Z,102938.36
2018-09-27T02:22:06.726Z,102932.09
2018-09-27T02:24:36.657Z,102935.08
2018-09-27T02:27:05.623Z,102927.73
2018-09-27T02:29:34.915Z,102926.87
2018-09-27T02:32:04.859Z,102915.64
2018-09-27T02:34:33.835Z,102920.36
2018-09-27T02:37:02.835Z,102918.19
2018-09-27T02:39:31.803Z,102908.22
2018-09-27T02:42:00.864Z,102917.57
2018-09-27T02:44:29.854Z,102914.59
2018-09-27T02:46:59.840Z,102916.62
2018-09-27T02:49:29.935Z,102905.06
2018-09-27T02:51:59.017Z,102912.27
2018-09-27T02:54:28.007Z,102909.58
2018-09-27T02:56:57.039Z,102906.45
2018-09-27T02:59:26.051Z,102906.69
2018-09-27T03:01:55.161Z,102904.95
2018-09-27T03:04:24.181Z,102907.97
2018-09-27T03:06:53.297Z,102900.58
2018-09-27T03:09:22.288Z,102902.67
2018-09-27T03:11:53.352Z,102903.35
2018-09-27T03:14:22.296Z,102900.61
2018-09-27T03:16:51.209Z,102896.73
2018-09-27T03:19:25.632Z,102893.81
2018-09-27T03:21:54.583Z,102897.02
2018-09-27T03:24:23.549Z,102890.71
2018-09-27T03:26:52.630Z,102884.89
2018-09-27T03:29:21.559Z,102882.72
2018-09-27T03:31:50.474Z,102884.89
2018-09-27T03:34:19.458Z,102885.52
2018-09-27T03:36:48.381Z,102882.87
2018-09-27T03:39:17.299Z,102872.35
2018-09-27T03:41:46.235Z,102878.47
2018-09-27T03:44:15.121Z,102866.63
2018-09-27T03:46:44.042Z,102865.76
2018-09-27T03:49:12.989Z,102868.69
2018-09-27T03:51:41.900Z,102874.95
2018-09-27T03:54:10.994Z,102872.30
2018-09-27T03:56:40.050Z,102870.91
2018-09-27T03:59:09.075Z,102876.17
2018-09-27T04:01:38.116Z,102874.13
2018-09-27T04:04:07.003Z,102873.50
2018-09-27T04:07:38.947Z,102867.95
2018-09-27T04:10:07.992Z,102876.89
2018-09-27T04:12:37.160Z,102867.23
2018-09-27T04:15:06.515Z,102863.76
2018-09-27T04:17:35.668Z,102858.96
2018-09-27T04:20:04.836Z,102856.54
2018-09-27T04:22:33.775Z,102861.17
2018-09-27T04:25:02.763Z,102861.28
2018-09-27T04:27:31.779Z,102860.28
2018-09-27T04:30:00.695Z,102857.34
2018-09-27T04:32:30.002Z,102853.39
2018-09-27T04:34:59.167Z,102855.56
2018-09-27T04:37:28.161Z,102855.67
2018-09-27T04:39:57.097Z,102849.84
2018-09-27T04:42:26.161Z,102861.98
2018-09-27T04:44:55.134Z,102865.02
2018-09-27T04:47:24.046Z,102863.51
2018-09-27T04:49:53.176Z,102859.60
2018-09-27T04:52:22.159Z,102857.62
2018-09-27T04:54:51.140Z,102846.73
2018-09-27T04:57:20.267Z,102849.92
2018-09-27T04:59:49.935Z,102845.80
2018-09-27T05:02:19.036Z,102845.70
2018-09-27T05:04:48.117Z,102843.27
2018-09-27T05:07:17.206Z,102838.75
2018-09-27T05:09:46.196Z,102832.38
2018-09-27T05:12:15.152Z,102832.02
2018-09-27T05:14:44.082Z,102828.68
2018-09-27T05:17:12.972Z,102830.55
2018-09-27T05:19:41.949Z,102828.73
2018-09-27T05:22:10.891Z,102834.54
2018-09-27T05:24:39.869Z,102832.94
2018-09-27T05:27:09.152Z,102834.92
2018-09-27T05:29:39.182Z,102830.34
2018-09-27T05:32:08.094Z,102831.90
2018-09-27T05:34:37.072Z,102831.99
2018-09-27T05:37:06.078Z,102838.42
2018-09-27T05:39:35.052Z,102840.72
2018-09-27T05:42:03.918Z,102838.42
2018-09-27T05:44:32.852Z,102834.38
2018-09-27T05:47:01.839Z,102829.30
2018-09-27T05:49:30.796Z,102827.95
2018-09-27T05:51:59.720Z,102829.55
2018-09-27T05:54:28.660Z,102841.64
2018-09-27T05:56:57.641Z,102839.47
2018-09-27T05:59:26.593Z,102837.24
2018-09-27T06:01:55.636Z,102837.81
2018-09-27T06:04:24.590Z,102831.95
2018-09-27T06:06:53.574Z,102827.38
2018-09-27T06:09:22.556Z,102826.30
2018-09-27T06:11:51.499Z,102827.86
2018-09-27T06:14:20.472Z,102826.41
2018-09-27T06:16:49.416Z,102827.66
2018-09-27T06:19:18.383Z,102824.84
2018-09-27T06:21:47.323Z,102825.41
2018-09-27T06:24:16.204Z,102826.09
2018-09-27T06:26:45.115Z,102819.35
2018-09-27T06:29:14.515Z,102819.03
2018-09-27T06:31:43.492Z,102811.31
2018-09-27T06:34:12.384Z,102822.33
2018-09-27T06:36:42.274Z,102825.47
2018-09-27T06:39:11.696Z,102827.63
2018-09-27T06:41:40.772Z,102821.20
2018-09-27T06:44:09.761Z,102820.16
2018-09-27T06:46:38.736Z,102819.41
2018-09-27T06:49:07.822Z,102820.23
2018-09-27T06:51:36.753Z,102816.20
2018-09-27T06:54:05.704Z,102818.11
2018-09-27T06:56:34.701Z,102811.44
2018-09-27T06:59:03.624Z,102810.12
2018-09-27T07:01:38.288Z,102806.42
2018-09-27T07:04:07.316Z,102805.63
2018-09-27T07:06:36.223Z,102802.06
2018-09-27T07:09:08.380Z,102807.70
2018-09-27T07:11:38.380Z,102811.81
2018-09-27T07:14:07.844Z,102804.60
2018-09-27T07:16:37.040Z,102802.52
2018-09-27T07:19:08.409Z,102796.73
2018-09-27T07:21:37.466Z,102807.78
2018-09-27T07:24:06.344Z,102806.88
2018-09-27T07:26:35.249Z,102801.71
2018-09-27T07:29:04.183Z,102803.48
2018-09-27T07:31:35.216Z,102801.16
2018-09-27T07:34:04.197Z,102798.08
2018-09-27T07:36:33.166Z,102794.81
2018-09-27T07:39:03.168Z,102796.72
2018-09-27T07:41:32.098Z,102793.93
2018-09-27T07:44:01.094Z,102798.56
2018-09-27T07:46:31.506Z,102797.43
2018-09-27T07:49:00.546Z,102793.23
2018-09-27T07:51:35.249Z,102797.89
2018-09-27T07:54:09.708Z,102790.81
2018-09-27T07:56:38.703Z,102791.59
2018-09-27T07:59:07.619Z,102797.92
2018-09-27T08:01:37.560Z,102789.78
2018-09-27T08:04:07.134Z,102796.23
2018-09-27T08:06:36.072Z,102785.95
2018-09-27T08:09:07.974Z,102785.86
2018-09-27T08:11:42.035Z,102784.84
2018-09-27T08:14:10.876Z,102780.33
2018-09-27T08:16:39.830Z,102787.55
2018-09-27T08:19:08.810Z,102781.17
2018-09-27T08:21:37.709Z,102784.22
2018-09-27T08:24:06.657Z,102780.47
2018-09-27T08:26:35.614Z,102776.36
2018-09-27T08:29:04.590Z,102777.48
2018-09-27T08:31:33.544Z,102776.20
2018-09-27T08:34:02.499Z,102780.84
2018-09-27T08:36:32.001Z,102775.09
2018-09-27T08:39:07.974Z,102776.63
2018-09-27T08:41:37.133Z,102770.40
2018-09-27T08:44:06.171Z,102773.12
2018-09-27T08:46:35.144Z,102762.77
2018-09-27T08:49:04.377Z,102758.09
2018-09-27T08:51:33.315Z,102750.23
2018-09-27T08:54:02.356Z,102747.33
2018-09-27T08:56:31.349Z,102746.83
2018-09-27T08:59:00.346Z,102736.81
2018-09-27T09:01:29.579Z,102740.94
2018-09-27T09:03:58.704Z,102744.35
2018-09-27T09:06:27.582Z,102742.30
2018-09-27T09:08:57.188Z,102745.00
2018-09-27T09:11:26.125Z,102744.58
2018-09-27T09:13:55.064Z,102741.98
2018-09-27T09:16:23.945Z,102739.64
2018-09-27T09:18:52.875Z,102733.68
2018-09-27T09:21:21.874Z,102726.81
2018-09-27T09:23:50.806Z,102726.34
2018-09-27T09:26:19.847Z,102724.11
2018-09-27T09:28:48.904Z,102720.03
2018-09-27T09:31:17.853Z,102712.61
2018-09-27T09:33:46.846Z,102711.76
2018-09-27T09:36:15.812Z,102712.88
2018-09-27T09:38:44.848Z,102710.94
2018-09-27T09:41:13.820Z,102709.07
2018-09-27T09:43:42.727Z,102698.97
2018-09-27T09:46:11.822Z,102693.40
2018-09-27T09:48:41.886Z,102689.42
2018-09-27T09:51:11.922Z,102685.61
2018-09-27T09:53:41.031Z,102688.06
2018-09-27T09:56:10.150Z,102680.82
2018-09-27T09:58:39.104Z,102682.48
2018-09-27T10:01:08.136Z,102687.11
2018-09-27T10:03:37.061Z,102681.91
2018-09-27T10:06:06.036Z,102680.09
2018-09-27T10:08:35.029Z,102671.08
2018-09-27T10:11:04.230Z,102671.72
2018-09-27T10:13:33.376Z,102660.80
2018-09-27T10:16:02.318Z,102661.92
2018-09-27T10:18:31.258Z,102660.57
2018-09-27T10:21:00.340Z,102654.32
2018-09-27T10:23:29.312Z,102651.95
2018-09-27T10:25:58.294Z,102654.96
2018-09-27T10:28:27.245Z,102659.67
2018-09-27T10:30:56.138Z,102653.91
2018-09-27T10:33:25.048Z,102649.47
2018-09-27T10:35:54.090Z,102648.41
2018-09-27T10:38:23.054Z,102639.27
2018-09-27T10:40:51.973Z,102633.91
2018-09-27T10:43:20.950Z,102626.14
2018-09-27T10:45:51.698Z,102626.55
2018-09-27T10:48:21.570Z,102621.92
2018-09-27T10:50:51.757Z,102623.64
2018-09-27T10:53:24.039Z,102616.87
2018-09-27T10:55:54.411Z,102617.92
2018-09-27T10:58:23.715Z,102615.80
2018-09-27T11:00:53.679Z,102614.14
2018-09-27T11:03:22.607Z,102616.92
2018-09-27T11:05:51.632Z,102619.27
2018-09-27T11:08:20.700Z,102605.53
2018-09-27T11:10:49.723Z,102603.91
2018-09-27T11:13:18.610Z,102599.48
2018-09-27T11:15:47.620Z,102594.22
2018-09-27T11:18:16.565Z,102592.34
2018-09-27T11:20:45.489Z,102589.68
2018-09-27T11:23:14.410Z,102584.91
2018-09-27T11:25:44.483Z,102584.42
2018-09-27T11:28:13.380Z,102580.72
2018-09-27T11:30:42.339Z,102577.63
2018-09-27T11:33:11.349Z,102571.46
2018-09-27T11:35:40.243Z,102568.51
2018-09-27T11:38:09.211Z,102564.43
2018-09-27T11:40:38.095Z,102561.47
2018-09-27T11:43:07.146Z,102552.29
2018-09-27T11:45:36.047Z,102551.50
2018-09-27T11:48:05.057Z,102548.45
2018-09-27T11:50:33.980Z,102544.09
2018-09-27T11:53:02.888Z,102549.98
2018-09-27T11:55:31.951Z,102539.55
2018-09-27T11:58:00.934Z,102530.24
2018-09-27T12:00:29.981Z,102529.38
2018-09-27T12:02:58.916Z,102526.38
2018-09-27T12:05:27.825Z,102518.59
2018-09-27T12:07:56.839Z,102512.58
2018-09-27T12:10:25.818Z,102505.03
2018-09-27T12:12:54.898Z,102507.38
2018-09-27T12:15:23.954Z,102502.74
2018-09-27T12:17:52.929Z,102500.38
2018-09-27T12:20:21.962Z,102493.97
2018-09-27T12:22:51.089Z,102491.25
2018-09-27T12:25:19.963Z,102485.26
2018-09-27T12:27:49.547Z,102480.59
2018-09-27T12:30:18.557Z,102481.37
2018-09-27T12:32:47.483Z,102481.57
2018-09-27T12:35:16.426Z,102477.67
2018-09-27T12:37:45.463Z,102469.73
2018-09-27T12:40:14.466Z,102465.16
2018-09-27T12:42:43.505Z,102465.56
2018-09-27T12:45:12.621Z,102460.41
2018-09-27T12:47:41.559Z,102461.75
2018-09-27T12:50:10.475Z,102463.55
2018-09-27T12:52:39.488Z,102453.86
2018-09-27T12:55:08.341Z,102452.06
2018-09-27T12:57:37.269Z,102449.94
2018-09-27T13:00:06.188Z,102445.39
2018-09-27T13:02:37.206Z,102445.70
2018-09-27T13:05:06.071Z,102443.53
2018-09-27T13:07:34.981Z,102448.39
2018-09-27T13:10:04.077Z,102435.88
2018-09-27T13:12:32.969Z,102433.48
2018-09-27T13:15:01.929Z,102428.45
2018-09-27T13:17:30.917Z,102418.84
2018-09-27T13:19:59.905Z,102419.80
2018-09-27T13:22:28.737Z,102414.45
2018-09-27T13:24:57.768Z,102414.45
2018-09-27T13:27:26.592Z,102415.44
2018-09-27T13:29:55.575Z,102405.92
2018-09-27T13:32:24.464Z,102409.20
2018-09-27T13:34:53.382Z,102406.52
2018-09-27T13:37:22.342Z,102405.83
2018-09-27T13:39:51.285Z,102399.50
2018-09-27T13:42:20.378Z,102395.41
2018-09-27T13:44:49.239Z,102393.28
2018-09-27T13:47:20.287Z,102391.92
2018-09-27T13:49:49.523Z,102388.03
2018-09-27T13:52:18.544Z,102387.48
2018-09-27T13:54:47.432Z,102388.03
2018-09-27T13:57:16.392Z,102388.03
2018-09-27T13:59:45.248Z,102392.02
2018-09-27T14:02:14.135Z,102392.01
2018-09-27T14:04:43.048Z,102387.34
2018-09-27T14:07:11.943Z,102385.80
2018-09-27T14:09:40.869Z,102374.65
2018-09-27T14:12:09.759Z,102377.16
2018-09-27T14:14:38.828Z,102376.30
2018-09-27T14:17:07.666Z,102380.88
2018-09-27T14:19:36.716Z,102376.09
2018-09-27T14:22:05.649Z,102375.42
2018-09-27T14:24:34.621Z,102372.68
2018-09-27T14:27:03.670Z,102364.88
2018-09-27T14:29:32.686Z,102367.91
2018-09-27T14:32:01.733Z,102367.03
2018-09-27T14:34:30.562Z,102370.91
2018-09-27T14:36:59.456Z,102363.03
2018-09-27T14:39:28.516Z,102363.16
2018-09-27T14:41:57.420Z,102369.95
2018-09-27T14:44:26.348Z,102365.48
2018-09-27T14:46:55.360Z,102361.41
2018-09-27T14:49:24.362Z,102358.42
2018-09-27T14:51:53.285Z,102357.34
2018-09-27T14:54:22.305Z,102354.55
2018-09-27T14:56:52.521Z,102350.18
2018-09-27T14:59:21.649Z,102343.57
2018-09-27T15:01:50.647Z,102354.05
2018-09-27T15:04:19.677Z,102346.20
2018-09-27T15:06:48.666Z,102341.04
2018-09-27T15:09:18.716Z,102341.27
2018-09-27T15:11:48.701Z,102338.05
2018-09-27T15:14:17.758Z,102329.91
2018-09-27T15:16:49.910Z,102327.93
2018-09-27T15:19:18.809Z,102324.94
2018-09-27T15:21:47.705Z,102325.31
2018-09-27T15:24:16.608Z,102324.27
2018-09-27T15:26:45.629Z,102330.20
2018-09-27T15:29:14.595Z,102332.52
2018-09-27T15:31:43.625Z,102334.95
2018-09-27T15:34:12.524Z,102339.02
2018-09-27T15:36:41.583Z,102331.24
2018-09-27T15:39:10.512Z,102340.47
2018-09-27T15:41:39.416Z,102341.14
2018-09-27T15:44:08.438Z,102331.55
2018-09-27T15:46:37.384Z,102335.70
2018-09-27T15:49:06.353Z,102331.94
2018-09-27T15:51:35.243Z,102331.34
2018-09-27T15:54:04.165Z,102331.82
2018-09-27T15:56:33.101Z,102333.66
2018-09-27T15:59:02.043Z,102326.09
2018-09-27T16:01:31.034Z,102316.22
2018-09-27T16:04:00.032Z,102316.40
2018-09-27T16:06:29.188Z,102312.91
2018-09-27T16:08:58.240Z,102306.48
2018-09-27T16:11:27.183Z,102301.19
2018-09-27T16:13:56.243Z,102300.00
2018-09-27T16:16:25.465Z,102294.58
2018-09-27T16:18:55.737Z,102299.33
2018-09-27T16:21:24.686Z,102294.39
2018-09-27T16:23:53.642Z,102294.27
2018-09-27T16:26:22.560Z,102290.32
2018-09-27T16:28:51.670Z,102289.34
2018-09-27T16:31:20.828Z,102285.66
2018-09-27T16:33:52.025Z,102287.11
2018-09-27T16:36:21.130Z,102288.06
2018-09-27T16:38:50.094Z,102285.08
2018-09-27T16:41:19.025Z,102283.80
2018-09-27T16:43:48.338Z,102282.17
2018-09-27T16:46:17.767Z,102276.23
2018-09-27T16:48:46.799Z,102273.70
2018-09-27T16:51:15.717Z,102269.31
2018-09-27T16:53:44.718Z,102270.08
2018-09-27T16:56:13.611Z,102275.71
2018-09-27T16:58:42.556Z,102266.88
2018-09-27T17:01:11.453Z,102259.52
2018-09-27T17:03:42.399Z,102251.15
2018-09-27T17:06:11.285Z,102246.41
2018-09-27T17:08:40.210Z,102245.72
2018-09-27T17:11:09.237Z,102246.42
2018-09-27T17:13:38.131Z,102243.48
2018-09-27T17:16:07.135Z,102246.41
2018-09-27T17:18:37.582Z,102244.95
2018-09-27T17:21:06.568Z,102244.55
2018-09-27T17:23:35.642Z,102242.80
2018-09-27T17:26:04.513Z,102235.32
2018-09-27T17:28:33.413Z,102230.56
2018-09-27T17:31:02.294Z,102232.47
2018-09-27T17:33:31.187Z,102231.00
2018-09-27T17:36:06.282Z,102228.49
2018-09-27T17:38:38.746Z,102228.09
2018-09-27T17:41:07.848Z,102224.41
2018-09-27T17:43:37.620Z,102220.91
2018-09-27T17:46:06.536Z,102217.51
2018-09-27T17:48:35.552Z,102219.03
2018-09-27T17:51:04.432Z,102215.38
2018-09-27T17:53:33.495Z,102214.19
2018-09-27T17:56:02.244Z,102217.68
2018-09-27T17:58:31.192Z,102217.30
2018-09-27T18:01:00.182Z,102217.97
2018-09-27T18:03:29.059Z,102214.56
2018-09-27T18:05:58.987Z,102214.16
2018-09-27T18:08:27.932Z,102217.41
2018-09-27T18:10:56.816Z,102223.41
2018-09-27T18:13:25.905Z,102223.95
2018-09-27T18:15:54.763Z,102228.75
2018-09-27T18:18:23.632Z,102236.77
2018-09-27T18:20:52.573Z,102230.16
2018-09-27T18:23:21.481Z,102235.00
2018-09-27T18:25:50.431Z,102234.55
2018-09-27T18:28:19.291Z,102236.84
2018-09-27T18:30:48.214Z,102237.58
2018-09-27T18:33:17.445Z,102238.94
2018-09-27T18:35:46.370Z,102230.81
2018-09-27T18:38:15.278Z,102231.09
2018-09-27T18:40:44.145Z,102229.90
2018-09-27T18:43:13.093Z,102228.62
2018-09-27T18:45:41.912Z,102223.78
2018-09-27T18:48:10.827Z,102230.97
2018-09-27T18:50:39.692Z,102235.97
2018-09-27T18:53:09.636Z,102239.66
2018-09-27T18:55:38.523Z,102236.70
2018-09-27T18:58:07.454Z,102247.27
2018-09-27T19:00:36.298Z,102247.06
2018-09-27T19:03:05.235Z,102244.14
2018-09-27T19:05:34.192Z,102239.34
2018-09-27T19:08:03.108Z,102222.69
2018-09-27T19:10:32.092Z,102226.83
2018-09-27T19:13:00.984Z,102225.19
2018-09-27T19:15:29.880Z,102225.41
2018-09-27T19:17:58.882Z,102217.36
2018-09-27T19:20:27.887Z,102215.22
2018-09-27T19:22:56.733Z,102210.67
2018-09-27T19:25:25.617Z,102215.71
2018-09-27T19:27:54.505Z,102209.88
2018-09-27T19:30:23.553Z,102205.98
2018-09-27T19:32:52.430Z,102215.16
2018-09-27T19:35:21.301Z,102216.38
2018-09-27T19:37:50.305Z,102225.12
2018-09-27T19:40:19.173Z,102230.63
2018-09-27T19:42:48.075Z,102234.77
2018-09-27T19:45:17.032Z,102231.84
2018-09-27T19:47:45.937Z,102233.77
2018-09-27T19:50:14.919Z,102225.16
2018-09-27T19:52:43.802Z,102218.09
2018-09-27T19:55:12.796Z,102219.61
2018-09-27T19:57:41.769Z,102218.89
2018-09-27T20:00:10.686Z,102215.11
2018-09-27T20:02:39.616Z,102220.11
2018-09-27T20:05:08.498Z,102216.84
2018-09-27T20:07:37.390Z,102221.12
2018-09-27T20:10:06.375Z,102216.11
2018-09-27T20:12:35.217Z,102218.03
2018-09-27T20:15:04.144Z,102210.73
2018-09-27T20:17:33.039Z,102216.05
2018-09-27T20:20:01.924Z,102216.62
2018-09-27T20:22:30.851Z,102214.86
2018-09-27T20:24:59.716Z,102219.11
2018-09-27T20:27:28.673Z,102222.19
2018-09-27T20:29:57.584Z,102218.91
2018-09-27T20:32:26.486Z,102216.54
2018-09-27T20:34:55.426Z,102214.05
2018-09-27T20:37:24.267Z,102210.56
2018-09-27T20:39:53.219Z,102209.48
2018-09-27T20:42:22.100Z,102208.14
2018-09-27T20:44:51.002Z,102212.64
2018-09-27T20:47:19.912Z,102219.32
2018-09-27T20:49:48.862Z,102217.64
2018-09-27T20:52:17.746Z,102223.23
2018-09-27T20:54:47.014Z,102214.26
2018-09-27T20:57:15.910Z,102214.41
2018-09-27T20:59:44.857Z,102218.06
2018-09-27T21:02:13.766Z,102213.20
2018-09-27T21:04:42.673Z,102208.22
2018-09-27T21:07:11.562Z,102209.48
2018-09-27T21:09:40.474Z,102198.91
2018-09-27T21:12:09.425Z,102207.47
2018-09-27T21:14:38.324Z,102203.41
2018-09-27T21:17:07.272Z,102202.31
2018-09-27T21:19:36.145Z,102199.31
2018-09-27T21:22:05.053Z,102198.75
2018-09-27T21:24:33.948Z,102195.61
2018-09-27T21:27:02.856Z,102191.20
2018-09-27T21:29:31.756Z,102180.50
2018-09-27T21:32:00.666Z,102180.13
2018-09-27T21:34:29.536Z,102182.67
2018-09-27T21:36:58.416Z,102182.02
2018-09-27T21:39:27.311Z,102180.98
2018-09-27T21:41:56.199Z,102183.79
2018-09-27T21:44:25.116Z,102177.22
2018-09-27T21:46:54.040Z,102174.39
2018-09-27T21:49:23.134Z,102179.71
2018-09-27T21:51:52.041Z,102179.14
2018-09-27T21:54:20.919Z,102172.25
2018-09-27T21:56:49.867Z,102161.02
2018-09-27T21:59:18.731Z,102155.36
2018-09-27T22:01:47.648Z,102159.42
2018-09-27T22:04:16.522Z,102167.30
2018-09-27T22:06:46.342Z,102166.66
2018-09-27T22:09:15.276Z,102162.14
2018-09-27T22:11:44.146Z,102164.14
2018-09-27T22:14:13.060Z,102160.36
2018-09-27T22:16:41.945Z,102157.98
2018-09-27T22:19:10.837Z,102162.78
2018-09-27T22:21:39.807Z,102163.65
2018-09-27T22:24:08.791Z,102163.57
2018-09-27T22:26:37.753Z,102159.72
2018-09-27T22:29:06.700Z,102157.50
2018-09-27T22:31:35.577Z,102155.95
2018-09-27T22:34:04.786Z,102158.38
2018-09-27T22:36:33.697Z,102158.79
2018-09-27T22:39:02.583Z,102150.03
2018-09-27T22:41:34.413Z,102154.95
2018-09-27T22:44:03.312Z,102148.59
2018-09-27T22:46:32.303Z,102150.81
2018-09-27T22:49:01.395Z,102150.97
2018-09-27T22:51:30.385Z,102145.89
2018-09-27T22:53:59.350Z,102146.27
2018-09-27T22:56:28.364Z,102145.20
2018-09-27T22:58:57.341Z,102140.80
2018-09-27T23:01:26.510Z,102143.75
2018-09-27T23:03:55.403Z,102143.28
2018-09-27T23:06:24.307Z,102145.05
2018-09-27T23:08:54.221Z,102137.45
2018-09-27T23:11:23.121Z,102131.95
2018-09-27T23:13:52.113Z,102141.64
2018-09-27T23:16:21.003Z,102148.03
2018-09-27T23:18:49.941Z,102150.27
2018-09-27T23:21:19.923Z,102139.30
2018-09-27T23:23:48.943Z,102140.91
2018-09-27T23:26:17.841Z,102144.15
2018-09-27T23:28:46.722Z,102140.80
2018-09-27T23:31:15.625Z,102151.40
2018-09-27T23:33:44.527Z,102145.20
2018-09-27T23:36:14.543Z,102154.10
2018-09-27T23:38:43.459Z,102159.20
2018-09-27T23:41:13.448Z,102151.59
2018-09-27T23:43:46.011Z,102161.57
2018-09-27T23:46:18.921Z,102164.42
2018-09-27T23:48:53.817Z,102156.79
2018-09-27T23:51:27.554Z,102163.48
2018-09-27T23:53:58.781Z,102159.66
2018-09-27T23:56:27.692Z,102158.44
2018-09-27T23:58:56.616Z,102155.28
